Altisurface de Balesta Nature

FR-0249 · Occitanie, 法国

罗盘
风向 的 风向 190°
风: 3 kt, 1 beaufort

添加一条跑道以查看侧风和逆风信息。

添置 跑道
0 1.000 2.000 3.000 4.000 5.000
CAVOK
METAR LFBT 030130Z AUTO 19003KT CAVOK 13/12 Q1025 TEMPO 4000 BR

METAR Altisurface de Balesta Nature - FR-0249

Altisurface de Balesta Nature是Roquefort-sur-Garonne,法国中的小机场。 视场标高为1.394 ft。 该领域的国际民航组织标志是FR-0249.

这份报告是针对2022年10月3日 03:30, 当地时间在Tarbes-Lourdes-Pyrénées Airport进行的。

机场观察

风向为190°,速度为3 kt。

天气为CAVOK。这意味着在5.000 ft或MSA(最低安全高度)以下(以较高者为准)以下没有云。这也意味着没有观测到积雨云或高耸的积云,可见度为10 km 或者更多或更高。此外,不会有雾,降雨或其他重要天气。

温度和风寒是13 °C。 露点为12 °C,相对湿度为94%。 海平面上的气压为1025 hPa (QNH)。

发展趋势

  • 暂时的

    可变方向的风很小或没有。 可见性变为4 km。 重大天气:薄雾。

白天

今天,太阳从07:55升起,在19:34降落。 这适用于Altisurface de Balesta Nature,世界夏令时可能有所不同。 当地时间与世界标准时间之间的时差为+2 小时。 夏令时目前正在进行中。

公司介绍

我们没有关于这个机场的公司信息。

体会

到Vliegles.nl去找飞行课程,跳伞和其他飞行体验。 浏览页面,了解Altisurface de Balesta Nature附近所有可用的活动。 你也可以使用搜索功能来寻找你所在地附近的特定飞行课程、跳伞或其他飞行体验。

温度 & 天气

温度 13 °C
露点 12 °C
相对湿度 94%
Kp-index 3 (0-9)

白天

日出
07:59 (4h 13m)
中午
13:49
日落
19:38

小工具

你想在你的网站上有一个关于Altisurface de Balesta Nature的当前航空天气(METAR)的小部件吗?

</> 显示HTML代码

我们和第三方通过cookies跟踪您在我们网站上的上网行为。如果您继续,我们认为您同意我们的cookie政策。 了解更多